Terminal Aerodrome Forecast
Issued by NWS Austin/San Antonio, TX

Home | Current Version | Previous Version | Text Only | Print | Product List | Glossary On
Versions: 1 2 3 4 5 6 7 8 9 10 11 12
431
FTUS44 KEWX 122344
TAFSAT
TAF
KSAT 122344Z 1300/1406 02004KT P6SM SKC
     FM131200 36004KT P6SM OVC015
     FM131400 02004KT 5SM BR OVC009
     FM131600 08006KT P6SM OVC015
     FM131800 14008KT P6SM SCT020 BKN030=

USA.gov is the U.S. government's official web portal to all federal, state and local government web resources and services.